Hurlburt Field
KHRT : now visible

Airfield :











YOU CAN JOIN US ON...

 
LOGIN :

Register | Disclaimer

   EN    FR    IT 

 









Legend :    VFR   Marginal VFR   IFR   Intensive IFR   Very Intensive IFR
Visi :
Ceiling :
>= 8 km
>= 3000ft
5 to 8 km
1000 to 3000 ft
1500m to 5 km
500 to 1000 ft
800 to 1500m
200 to 500 ft
< 800m
< 200 ft
Symbols :   Thunderstorms  Fog  Heavy snow  Heavy precipitations  Wind > 20 kt






- Airport Elevation : 38 ft


KHRT - Hurlburt Field

CURRENT METAR :
  • 190756Z 00000KT 10SM CLR 01/M02 A3027 RMK AO2A SLP252 T00101016 $

EXPIRED METARs :
  • 190656Z AUTO 00000KT 10SM CLR 01/M02 A3025 RMK AO2 SLP246 T00101019 $
  • 190556Z 00000KT 10SM CLR 02/M02 A3024 RMK AO2A SLP242 T00151016 10113 20015 401840004 50007 $

TAF COR TAF KHRT
Valid from the 18 at 20:00 until the 20 at 00:00 UTC


182010Z 1820/1924 20012KT 9999 SKC QNH3012INS TX16/1820Z TN04/1910Z LAST NO AMDS AFT 1822 NEXT 1910
KZJX FIR / North America



MET'MAP, your aeronautical weather chart ! - Copyright ORBIFLY December 2007 - Disclaimer

ORBIFLY MET'MAP TEAM :

Programming & Development : Alexandra Zaïnal
Concept & original design : Baudouin d'Aumeries
Assistance for programming : Marc-Olivier Méhu
Technical & hardware support : Manuel Goepfert

Contact : metmap@orbifly.com




SOURCES & CREDITS :

   NOAA       Earth
Advisory